sensor_id;sensor_type;location;lat;lon;timestamp;P1;durP1;ratioP1;P2;durP2;ratioP2
63379;SDS011;53160;55.014;73.156;2022-10-26T00:01:25;9.20;;;8.60;;
63379;SDS011;53160;55.014;73.156;2022-10-26T00:03:53;15.40;;;14.00;;
63379;SDS011;53160;55.014;73.156;2022-10-26T00:06:20;15.40;;;14.60;;
63379;SDS011;53160;55.014;73.156;2022-10-26T00:08:50;20.00;;;17.00;;
63379;SDS011;53160;55.014;73.156;2022-10-26T00:11:17;17.20;;;16.40;;
63379;SDS011;53160;55.014;73.156;2022-10-26T00:13:44;21.60;;;17.20;;
63379;SDS011;53160;55.014;73.156;2022-10-26T00:16:12;15.40;;;12.80;;
63379;SDS011;53160;55.014;73.156;2022-10-26T00:18:42;13.20;;;13.00;;
63379;SDS011;53160;55.014;73.156;2022-10-26T00:21:09;15.40;;;13.60;;
63379;SDS011;53160;55.014;73.156;2022-10-26T00:23:45;9.60;;;9.60;;
63379;SDS011;53160;55.014;73.156;2022-10-26T00:26:11;12.80;;;10.60;;
63379;SDS011;53160;55.014;73.156;2022-10-26T00:28:38;11.40;;;11.40;;
63379;SDS011;53160;55.014;73.156;2022-10-26T00:31:09;10.40;;;9.60;;
63379;SDS011;53160;55.014;73.156;2022-10-26T00:33:41;16.00;;;14.40;;
63379;SDS011;53160;55.014;73.156;2022-10-26T00:36:17;13.20;;;13.00;;
63379;SDS011;53160;55.014;73.156;2022-10-26T00:38:50;18.00;;;13.60;;
63379;SDS011;53160;55.014;73.156;2022-10-26T00:41:17;17.40;;;15.80;;
63379;SDS011;53160;55.014;73.156;2022-10-26T00:43:44;17.00;;;16.40;;
63379;SDS011;53160;55.014;73.156;2022-10-26T00:46:22;18.20;;;16.20;;
63379;SDS011;53160;55.014;73.156;2022-10-26T00:48:54;15.00;;;13.20;;
63379;SDS011;53160;55.014;73.156;2022-10-26T00:51:36;14.20;;;12.80;;
63379;SDS011;53160;55.014;73.156;2022-10-26T00:54:09;18.40;;;16.20;;
63379;SDS011;53160;55.014;73.156;2022-10-26T00:56:48;15.00;;;13.20;;
63379;SDS011;53160;55.014;73.156;2022-10-26T00:59:24;35.00;;;27.80;;
63379;SDS011;53160;55.014;73.156;2022-10-26T01:01:50;41.80;;;36.80;;
63379;SDS011;53160;55.014;73.156;2022-10-26T01:04:17;27.80;;;25.80;;
63379;SDS011;53160;55.014;73.156;2022-10-26T01:06:43;29.60;;;23.00;;
63379;SDS011;53160;55.014;73.156;2022-10-26T01:09:11;27.60;;;24.80;;
63379;SDS011;53160;55.014;73.156;2022-10-26T01:11:42;32.00;;;30.00;;
63379;SDS011;53160;55.014;73.156;2022-10-26T01:14:08;33.40;;;27.00;;
63379;SDS011;53160;55.014;73.156;2022-10-26T01:22:06;33.60;;;31.60;;
63379;SDS011;53160;55.014;73.156;2022-10-26T01:37:53;52.80;;;43.60;;
63379;SDS011;53160;55.014;73.156;2022-10-26T01:40:42;39.60;;;34.20;;
63379;SDS011;53160;55.014;73.156;2022-10-26T01:43:10;26.80;;;23.60;;
63379;SDS011;53160;55.014;73.156;2022-10-26T01:45:39;22.40;;;20.80;;
63379;SDS011;53160;55.014;73.156;2022-10-26T01:48:08;22.40;;;20.80;;
63379;SDS011;53160;55.014;73.156;2022-10-26T01:50:34;22.20;;;22.00;;
63379;SDS011;53160;55.014;73.156;2022-10-26T01:53:01;22.40;;;21.20;;
63379;SDS011;53160;55.014;73.156;2022-10-26T02:00:46;25.80;;;24.00;;
63379;SDS011;53160;55.014;73.156;2022-10-26T02:03:23;23.80;;;20.40;;
63379;SDS011;53160;55.014;73.156;2022-10-26T02:06:05;25.80;;;22.60;;
63379;SDS011;53160;55.014;73.156;2022-10-26T02:08:56;29.20;;;26.20;;
63379;SDS011;53160;55.014;73.156;2022-10-26T02:11:27;36.80;;;32.40;;
63379;SDS011;53160;55.014;73.156;2022-10-26T02:13:58;32.40;;;27.60;;
63379;SDS011;53160;55.014;73.156;2022-10-26T02:21:43;30.20;;;18.80;;
63379;SDS011;53160;55.014;73.156;2022-10-26T02:24:12;20.40;;;20.00;;
63379;SDS011;53160;55.014;73.156;2022-10-26T02:26:39;29.40;;;26.80;;
63379;SDS011;53160;55.014;73.156;2022-10-26T02:29:07;30.40;;;29.40;;
63379;SDS011;53160;55.014;73.156;2022-10-26T02:31:35;37.20;;;32.40;;
63379;SDS011;53160;55.014;73.156;2022-10-26T02:34:04;25.40;;;25.20;;
63379;SDS011;53160;55.014;73.156;2022-10-26T02:36:32;33.80;;;32.80;;
63379;SDS011;53160;55.014;73.156;2022-10-26T02:39:09;33.20;;;29.20;;
63379;SDS011;53160;55.014;73.156;2022-10-26T02:41:38;43.60;;;36.40;;
63379;SDS011;53160;55.014;73.156;2022-10-26T02:44:24;41.80;;;38.20;;
63379;SDS011;53160;55.014;73.156;2022-10-26T02:47:01;35.00;;;28.80;;
63379;SDS011;53160;55.014;73.156;2022-10-26T02:49:27;45.80;;;34.80;;
63379;SDS011;53160;55.014;73.156;2022-10-26T02:52:00;37.40;;;30.20;;
63379;SDS011;53160;55.014;73.156;2022-10-26T02:54:36;44.80;;;35.80;;
63379;SDS011;53160;55.014;73.156;2022-10-26T02:57:11;40.20;;;35.00;;
63379;SDS011;53160;55.014;73.156;2022-10-26T02:59:40;42.40;;;34.40;;
63379;SDS011;53160;55.014;73.156;2022-10-26T03:02:13;34.00;;;30.60;;
63379;SDS011;53160;55.014;73.156;2022-10-26T03:04:44;32.80;;;28.20;;
63379;SDS011;53160;55.014;73.156;2022-10-26T03:07:23;36.20;;;31.60;;
63379;SDS011;53160;55.014;73.156;2022-10-26T03:09:49;45.60;;;37.00;;
63379;SDS011;53160;55.014;73.156;2022-10-26T03:12:15;33.40;;;27.20;;
63379;SDS011;53160;55.014;73.156;2022-10-26T03:14:41;18.40;;;18.00;;
63379;SDS011;53160;55.014;73.156;2022-10-26T03:17:07;41.20;;;29.60;;
63379;SDS011;53160;55.014;73.156;2022-10-26T03:19:34;28.80;;;26.80;;
63379;SDS011;53160;55.014;73.156;2022-10-26T03:22:00;38.40;;;31.20;;
63379;SDS011;53160;55.014;73.156;2022-10-26T03:24:26;37.80;;;26.40;;
63379;SDS011;53160;55.014;73.156;2022-10-26T03:26:52;50.20;;;39.00;;
63379;SDS011;53160;55.014;73.156;2022-10-26T03:29:18;44.60;;;40.00;;
63379;SDS011;53160;55.014;73.156;2022-10-26T03:31:44;40.40;;;37.60;;
63379;SDS011;53160;55.014;73.156;2022-10-26T03:34:11;38.60;;;35.40;;
63379;SDS011;53160;55.014;73.156;2022-10-26T03:36:37;35.20;;;31.40;;
63379;SDS011;53160;55.014;73.156;2022-10-26T03:39:03;34.00;;;31.00;;
63379;SDS011;53160;55.014;73.156;2022-10-26T03:41:29;35.80;;;33.20;;
63379;SDS011;53160;55.014;73.156;2022-10-26T03:43:55;41.00;;;35.80;;
63379;SDS011;53160;55.014;73.156;2022-10-26T03:46:31;39.80;;;35.20;;
63379;SDS011;53160;55.014;73.156;2022-10-26T03:48:57;53.40;;;43.80;;
63379;SDS011;53160;55.014;73.156;2022-10-26T03:51:23;40.80;;;37.20;;
63379;SDS011;53160;55.014;73.156;2022-10-26T03:53:49;34.80;;;31.60;;
63379;SDS011;53160;55.014;73.156;2022-10-26T03:56:15;49.80;;;36.60;;
63379;SDS011;53160;55.014;73.156;2022-10-26T03:58:42;37.80;;;33.00;;
63379;SDS011;53160;55.014;73.156;2022-10-26T04:01:13;40.00;;;35.60;;
63379;SDS011;53160;55.014;73.156;2022-10-26T04:03:39;41.80;;;37.00;;
63379;SDS011;53160;55.014;73.156;2022-10-26T04:06:05;32.80;;;28.80;;
63379;SDS011;53160;55.014;73.156;2022-10-26T04:08:31;41.80;;;38.00;;
63379;SDS011;53160;55.014;73.156;2022-10-26T04:10:58;37.80;;;32.40;;
63379;SDS011;53160;55.014;73.156;2022-10-26T04:13:24;41.60;;;35.80;;
63379;SDS011;53160;55.014;73.156;2022-10-26T04:15:50;46.20;;;37.60;;
63379;SDS011;53160;55.014;73.156;2022-10-26T04:18:16;56.20;;;45.80;;
63379;SDS011;53160;55.014;73.156;2022-10-26T04:20:42;59.00;;;48.80;;
63379;SDS011;53160;55.014;73.156;2022-10-26T04:23:10;63.80;;;51.20;;
63379;SDS011;53160;55.014;73.156;2022-10-26T04:25:36;59.80;;;49.40;;
63379;SDS011;53160;55.014;73.156;2022-10-26T04:28:03;56.80;;;46.80;;
63379;SDS011;53160;55.014;73.156;2022-10-26T04:30:30;49.20;;;43.00;;
63379;SDS011;53160;55.014;73.156;2022-10-26T04:33:02;36.60;;;34.80;;
63379;SDS011;53160;55.014;73.156;2022-10-26T04:35:34;50.80;;;39.80;;
63379;SDS011;53160;55.014;73.156;2022-10-26T04:38:01;47.60;;;39.00;;
63379;SDS011;53160;55.014;73.156;2022-10-26T04:40:28;51.60;;;41.80;;
63379;SDS011;53160;55.014;73.156;2022-10-26T04:42:55;37.20;;;30.60;;
63379;SDS011;53160;55.014;73.156;2022-10-26T04:45:31;45.80;;;38.20;;
63379;SDS011;53160;55.014;73.156;2022-10-26T04:48:02;40.40;;;37.40;;
63379;SDS011;53160;55.014;73.156;2022-10-26T04:50:33;46.60;;;39.00;;
63379;SDS011;53160;55.014;73.156;2022-10-26T04:53:07;45.00;;;36.60;;
63379;SDS011;53160;55.014;73.156;2022-10-26T04:55:43;48.00;;;39.40;;
63379;SDS011;53160;55.014;73.156;2022-10-26T04:58:09;55.80;;;43.60;;
63379;SDS011;53160;55.014;73.156;2022-10-26T05:00:35;49.80;;;40.80;;
63379;SDS011;53160;55.014;73.156;2022-10-26T05:03:02;48.80;;;41.80;;
63379;SDS011;53160;55.014;73.156;2022-10-26T05:05:38;49.00;;;40.00;;
63379;SDS011;53160;55.014;73.156;2022-10-26T05:08:04;41.20;;;36.00;;
63379;SDS011;53160;55.014;73.156;2022-10-26T05:10:31;36.00;;;29.20;;
63379;SDS011;53160;55.014;73.156;2022-10-26T05:12:58;36.40;;;30.40;;
63379;SDS011;53160;55.014;73.156;2022-10-26T05:15:25;40.40;;;35.60;;
63379;SDS011;53160;55.014;73.156;2022-10-26T05:17:58;42.60;;;34.60;;
63379;SDS011;53160;55.014;73.156;2022-10-26T05:20:35;34.00;;;25.40;;
63379;SDS011;53160;55.014;73.156;2022-10-26T05:23:02;35.60;;;30.60;;
63379;SDS011;53160;55.014;73.156;2022-10-26T05:25:29;30.80;;;28.60;;
63379;SDS011;53160;55.014;73.156;2022-10-26T05:27:59;35.40;;;28.00;;
63379;SDS011;53160;55.014;73.156;2022-10-26T05:30:26;35.40;;;28.20;;
63379;SDS011;53160;55.014;73.156;2022-10-26T05:32:58;25.60;;;19.20;;
63379;SDS011;53160;55.014;73.156;2022-10-26T05:35:25;24.80;;;22.40;;
63379;SDS011;53160;55.014;73.156;2022-10-26T05:37:52;33.00;;;27.60;;
63379;SDS011;53160;55.014;73.156;2022-10-26T05:40:18;33.00;;;27.20;;
63379;SDS011;53160;55.014;73.156;2022-10-26T05:42:44;36.40;;;33.20;;
63379;SDS011;53160;55.014;73.156;2022-10-26T05:45:11;23.20;;;18.60;;
63379;SDS011;53160;55.014;73.156;2022-10-26T05:47:40;14.40;;;14.20;;
63379;SDS011;53160;55.014;73.156;2022-10-26T05:50:07;20.20;;;19.40;;
63379;SDS011;53160;55.014;73.156;2022-10-26T05:52:44;30.60;;;25.80;;
63379;SDS011;53160;55.014;73.156;2022-10-26T05:55:11;20.80;;;17.20;;
63379;SDS011;53160;55.014;73.156;2022-10-26T05:57:38;22.60;;;19.80;;
63379;SDS011;53160;55.014;73.156;2022-10-26T06:05:04;60.80;;;47.80;;
63379;SDS011;53160;55.014;73.156;2022-10-26T06:07:40;17.60;;;17.20;;
63379;SDS011;53160;55.014;73.156;2022-10-26T06:10:08;16.80;;;15.60;;
63379;SDS011;53160;55.014;73.156;2022-10-26T06:12:45;18.20;;;17.00;;
63379;SDS011;53160;55.014;73.156;2022-10-26T06:15:15;27.60;;;21.40;;
63379;SDS011;53160;55.014;73.156;2022-10-26T06:20:27;22.60;;;19.20;;
63379;SDS011;53160;55.014;73.156;2022-10-26T06:23:17;15.60;;;13.20;;
63379;SDS011;53160;55.014;73.156;2022-10-26T06:25:50;40.20;;;35.00;;
63379;SDS011;53160;55.014;73.156;2022-10-26T06:30:47;24.80;;;19.40;;
63379;SDS011;53160;55.014;73.156;2022-10-26T06:33:19;24.80;;;19.00;;
63379;SDS011;53160;55.014;73.156;2022-10-26T06:36:02;21.80;;;17.80;;
63379;SDS011;53160;55.014;73.156;2022-10-26T06:38:30;17.20;;;15.00;;
63379;SDS011;53160;55.014;73.156;2022-10-26T06:40:59;17.20;;;15.00;;
63379;SDS011;53160;55.014;73.156;2022-10-26T06:43:26;18.20;;;14.40;;
63379;SDS011;53160;55.014;73.156;2022-10-26T06:45:59;27.40;;;25.20;;
63379;SDS011;53160;55.014;73.156;2022-10-26T06:48:33;29.80;;;25.40;;
63379;SDS011;53160;55.014;73.156;2022-10-26T06:51:00;23.40;;;19.80;;
63379;SDS011;53160;55.014;73.156;2022-10-26T06:53:37;29.20;;;24.40;;
63379;SDS011;53160;55.014;73.156;2022-10-26T06:56:06;9.20;;;5.00;;
63379;SDS011;53160;55.014;73.156;2022-10-26T06:58:35;23.80;;;23.00;;
63379;SDS011;53160;55.014;73.156;2022-10-26T07:01:02;35.00;;;32.80;;
63379;SDS011;53160;55.014;73.156;2022-10-26T07:03:29;35.80;;;29.80;;
63379;SDS011;53160;55.014;73.156;2022-10-26T07:05:55;23.00;;;20.40;;
63379;SDS011;53160;55.014;73.156;2022-10-26T07:08:21;39.20;;;32.80;;
63379;SDS011;53160;55.014;73.156;2022-10-26T07:10:47;39.40;;;34.80;;
63379;SDS011;53160;55.014;73.156;2022-10-26T07:13:14;34.80;;;33.00;;
63379;SDS011;53160;55.014;73.156;2022-10-26T07:15:40;41.20;;;33.80;;
63379;SDS011;53160;55.014;73.156;2022-10-26T07:18:08;39.40;;;36.00;;
63379;SDS011;53160;55.014;73.156;2022-10-26T07:20:35;41.20;;;33.20;;
63379;SDS011;53160;55.014;73.156;2022-10-26T07:23:02;50.20;;;38.80;;
63379;SDS011;53160;55.014;73.156;2022-10-26T07:25:31;46.20;;;40.00;;
63379;SDS011;53160;55.014;73.156;2022-10-26T07:28:00;40.40;;;36.00;;
63379;SDS011;53160;55.014;73.156;2022-10-26T07:30:27;47.20;;;37.20;;
63379;SDS011;53160;55.014;73.156;2022-10-26T07:32:58;49.20;;;39.80;;
63379;SDS011;53160;55.014;73.156;2022-10-26T07:35:24;42.00;;;35.80;;
63379;SDS011;53160;55.014;73.156;2022-10-26T07:37:50;36.80;;;33.60;;
63379;SDS011;53160;55.014;73.156;2022-10-26T07:40:21;45.80;;;36.60;;
63379;SDS011;53160;55.014;73.156;2022-10-26T07:42:47;46.20;;;38.40;;
63379;SDS011;53160;55.014;73.156;2022-10-26T07:45:13;35.60;;;32.00;;
63379;SDS011;53160;55.014;73.156;2022-10-26T07:47:39;55.20;;;43.80;;
63379;SDS011;53160;55.014;73.156;2022-10-26T07:50:05;48.80;;;40.00;;
63379;SDS011;53160;55.014;73.156;2022-10-26T07:52:33;50.60;;;42.00;;
63379;SDS011;53160;55.014;73.156;2022-10-26T07:55:01;43.60;;;36.00;;
63379;SDS011;53160;55.014;73.156;2022-10-26T07:57:27;51.20;;;41.00;;
63379;SDS011;53160;55.014;73.156;2022-10-26T07:59:54;44.80;;;38.00;;
63379;SDS011;53160;55.014;73.156;2022-10-26T08:02:20;62.40;;;50.00;;
63379;SDS011;53160;55.014;73.156;2022-10-26T08:04:46;60.20;;;47.80;;
63379;SDS011;53160;55.014;73.156;2022-10-26T08:07:12;60.00;;;47.00;;
63379;SDS011;53160;55.014;73.156;2022-10-26T08:09:39;58.20;;;47.20;;
63379;SDS011;53160;55.014;73.156;2022-10-26T08:12:05;59.60;;;46.80;;
63379;SDS011;53160;55.014;73.156;2022-10-26T08:14:32;60.00;;;47.20;;
63379;SDS011;53160;55.014;73.156;2022-10-26T08:16:58;69.60;;;53.60;;
63379;SDS011;53160;55.014;73.156;2022-10-26T08:19:24;63.00;;;51.80;;
63379;SDS011;53160;55.014;73.156;2022-10-26T08:21:56;71.00;;;53.80;;
63379;SDS011;53160;55.014;73.156;2022-10-26T08:24:22;56.80;;;44.00;;
63379;SDS011;53160;55.014;73.156;2022-10-26T08:26:48;53.00;;;43.00;;
63379;SDS011;53160;55.014;73.156;2022-10-26T08:29:14;65.40;;;50.00;;
63379;SDS011;53160;55.014;73.156;2022-10-26T08:31:48;61.20;;;48.20;;
63379;SDS011;53160;55.014;73.156;2022-10-26T08:34:14;55.60;;;42.00;;
63379;SDS011;53160;55.014;73.156;2022-10-26T08:36:40;55.00;;;41.80;;
63379;SDS011;53160;55.014;73.156;2022-10-26T08:39:06;49.40;;;37.40;;
63379;SDS011;53160;55.014;73.156;2022-10-26T08:41:37;45.20;;;39.20;;
63379;SDS011;53160;55.014;73.156;2022-10-26T08:44:05;48.20;;;39.80;;
63379;SDS011;53160;55.014;73.156;2022-10-26T08:46:36;54.60;;;40.60;;
63379;SDS011;53160;55.014;73.156;2022-10-26T08:49:19;50.60;;;40.40;;
63379;SDS011;53160;55.014;73.156;2022-10-26T08:51:58;51.80;;;40.80;;
63379;SDS011;53160;55.014;73.156;2022-10-26T08:54:28;57.20;;;44.40;;
63379;SDS011;53160;55.014;73.156;2022-10-26T08:56:57;50.20;;;41.00;;
63379;SDS011;53160;55.014;73.156;2022-10-26T08:59:33;43.00;;;37.20;;
63379;SDS011;53160;55.014;73.156;2022-10-26T09:02:11;42.80;;;35.80;;
63379;SDS011;53160;55.014;73.156;2022-10-26T09:04:38;50.80;;;38.80;;
63379;SDS011;53160;55.014;73.156;2022-10-26T09:07:08;32.80;;;31.40;;
63379;SDS011;53160;55.014;73.156;2022-10-26T09:15:01;46.20;;;40.20;;
63379;SDS011;53160;55.014;73.156;2022-10-26T09:17:52;54.20;;;44.20;;
63379;SDS011;53160;55.014;73.156;2022-10-26T09:20:34;48.80;;;39.20;;
63379;SDS011;53160;55.014;73.156;2022-10-26T09:25:32;47.20;;;37.00;;
63379;SDS011;53160;55.014;73.156;2022-10-26T09:28:03;21.80;;;16.20;;
63379;SDS011;53160;55.014;73.156;2022-10-26T09:30:30;37.20;;;33.20;;
63379;SDS011;53160;55.014;73.156;2022-10-26T09:33:07;40.20;;;34.00;;
63379;SDS011;53160;55.014;73.156;2022-10-26T09:35:59;44.40;;;35.40;;
63379;SDS011;53160;55.014;73.156;2022-10-26T09:39:09;39.00;;;34.20;;
63379;SDS011;53160;55.014;73.156;2022-10-26T09:44:03;47.20;;;39.00;;
63379;SDS011;53160;55.014;73.156;2022-10-26T09:46:31;44.40;;;38.40;;
63379;SDS011;53160;55.014;73.156;2022-10-26T09:49:00;36.80;;;33.20;;
63379;SDS011;53160;55.014;73.156;2022-10-26T09:51:29;52.40;;;40.80;;
63379;SDS011;53160;55.014;73.156;2022-10-26T09:53:55;46.60;;;38.40;;
63379;SDS011;53160;55.014;73.156;2022-10-26T09:56:22;43.00;;;35.60;;
63379;SDS011;53160;55.014;73.156;2022-10-26T09:58:56;40.60;;;35.80;;
63379;SDS011;53160;55.014;73.156;2022-10-26T10:01:29;47.20;;;38.60;;
63379;SDS011;53160;55.014;73.156;2022-10-26T10:06:39;55.00;;;42.00;;
63379;SDS011;53160;55.014;73.156;2022-10-26T10:09:06;42.60;;;37.00;;
63379;SDS011;53160;55.014;73.156;2022-10-26T10:11:36;44.60;;;37.20;;
63379;SDS011;53160;55.014;73.156;2022-10-26T10:14:05;47.00;;;39.80;;
63379;SDS011;53160;55.014;73.156;2022-10-26T10:16:32;42.40;;;34.20;;
63379;SDS011;53160;55.014;73.156;2022-10-26T10:19:02;47.40;;;38.20;;
63379;SDS011;53160;55.014;73.156;2022-10-26T10:21:38;44.40;;;37.00;;
63379;SDS011;53160;55.014;73.156;2022-10-26T10:26:56;37.60;;;35.60;;
63379;SDS011;53160;55.014;73.156;2022-10-26T10:29:29;43.80;;;34.40;;
63379;SDS011;53160;55.014;73.156;2022-10-26T10:32:02;50.00;;;38.40;;
63379;SDS011;53160;55.014;73.156;2022-10-26T10:34:31;46.40;;;39.80;;
63379;SDS011;53160;55.014;73.156;2022-10-26T10:37:03;34.80;;;30.80;;
63379;SDS011;53160;55.014;73.156;2022-10-26T10:39:40;48.40;;;38.00;;
63379;SDS011;53160;55.014;73.156;2022-10-26T10:42:16;41.00;;;35.40;;
63379;SDS011;53160;55.014;73.156;2022-10-26T10:44:43;47.40;;;38.00;;
63379;SDS011;53160;55.014;73.156;2022-10-26T10:50:17;43.00;;;34.20;;
63379;SDS011;53160;55.014;73.156;2022-10-26T10:52:44;42.40;;;37.20;;
63379;SDS011;53160;55.014;73.156;2022-10-26T10:55:18;37.40;;;33.00;;
63379;SDS011;53160;55.014;73.156;2022-10-26T11:00:31;43.20;;;36.20;;
63379;SDS011;53160;55.014;73.156;2022-10-26T11:03:04;34.80;;;28.40;;
63379;SDS011;53160;55.014;73.156;2022-10-26T11:05:51;41.80;;;37.20;;
63379;SDS011;53160;55.014;73.156;2022-10-26T11:10:59;48.80;;;37.60;;
63379;SDS011;53160;55.014;73.156;2022-10-26T11:13:30;54.60;;;42.60;;
63379;SDS011;53160;55.014;73.156;2022-10-26T11:15:59;43.20;;;34.80;;
63379;SDS011;53160;55.014;73.156;2022-10-26T11:18:46;44.80;;;38.00;;
63379;SDS011;53160;55.014;73.156;2022-10-26T11:21:24;37.00;;;35.00;;
63379;SDS011;53160;55.014;73.156;2022-10-26T11:24:05;49.80;;;41.40;;
63379;SDS011;53160;55.014;73.156;2022-10-26T11:29:04;53.40;;;42.00;;
63379;SDS011;53160;55.014;73.156;2022-10-26T11:31:41;43.40;;;39.40;;
63379;SDS011;53160;55.014;73.156;2022-10-26T11:36:34;49.20;;;40.20;;
63379;SDS011;53160;55.014;73.156;2022-10-26T11:39:13;52.00;;;39.80;;
63379;SDS011;53160;55.014;73.156;2022-10-26T11:41:46;56.00;;;43.80;;
63379;SDS011;53160;55.014;73.156;2022-10-26T11:46:49;63.80;;;50.80;;
63379;SDS011;53160;55.014;73.156;2022-10-26T11:49:27;63.60;;;49.60;;
63379;SDS011;53160;55.014;73.156;2022-10-26T11:52:13;58.40;;;44.80;;
63379;SDS011;53160;55.014;73.156;2022-10-26T11:54:51;50.60;;;42.60;;
63379;SDS011;53160;55.014;73.156;2022-10-26T11:57:31;38.40;;;30.40;;
63379;SDS011;53160;55.014;73.156;2022-10-26T12:00:16;46.60;;;39.00;;
63379;SDS011;53160;55.014;73.156;2022-10-26T12:02:46;47.20;;;39.80;;
63379;SDS011;53160;55.014;73.156;2022-10-26T12:07:43;46.20;;;38.40;;
63379;SDS011;53160;55.014;73.156;2022-10-26T12:13:01;56.40;;;42.60;;
63379;SDS011;53160;55.014;73.156;2022-10-26T12:15:40;31.40;;;30.80;;
63379;SDS011;53160;55.014;73.156;2022-10-26T12:23:02;58.00;;;47.60;;
63379;SDS011;53160;55.014;73.156;2022-10-26T12:25:29;60.80;;;47.80;;
63379;SDS011;53160;55.014;73.156;2022-10-26T12:27:56;59.40;;;47.80;;
63379;SDS011;53160;55.014;73.156;2022-10-26T12:30:28;52.80;;;44.60;;
63379;SDS011;53160;55.014;73.156;2022-10-26T12:32:56;53.00;;;40.80;;
63379;SDS011;53160;55.014;73.156;2022-10-26T12:35:39;58.20;;;46.80;;
63379;SDS011;53160;55.014;73.156;2022-10-26T12:41:36;56.20;;;47.00;;
63379;SDS011;53160;55.014;73.156;2022-10-26T12:43:41;55.00;;;45.20;;
63379;SDS011;53160;55.014;73.156;2022-10-26T12:48:44;64.00;;;51.60;;
63379;SDS011;53160;55.014;73.156;2022-10-26T13:07:26;56.00;;;44.80;;
63379;SDS011;53160;55.014;73.156;2022-10-26T13:12:50;39.60;;;37.00;;
63379;SDS011;53160;55.014;73.156;2022-10-26T13:15:18;46.00;;;39.00;;
63379;SDS011;53160;55.014;73.156;2022-10-26T13:17:56;45.20;;;39.00;;
63379;SDS011;53160;55.014;73.156;2022-10-26T13:20:29;47.40;;;39.40;;
63379;SDS011;53160;55.014;73.156;2022-10-26T13:22:56;39.60;;;33.20;;
63379;SDS011;53160;55.014;73.156;2022-10-26T13:25:32;40.00;;;36.00;;
63379;SDS011;53160;55.014;73.156;2022-10-26T13:33:40;50.60;;;42.60;;
63379;SDS011;53160;55.014;73.156;2022-10-26T13:38:59;40.80;;;38.20;;
63379;SDS011;53160;55.014;73.156;2022-10-26T13:41:37;50.00;;;41.60;;
63379;SDS011;53160;55.014;73.156;2022-10-26T13:44:22;50.20;;;39.40;;
63379;SDS011;53160;55.014;73.156;2022-10-26T13:46:54;45.80;;;40.20;;
63379;SDS011;53160;55.014;73.156;2022-10-26T13:49:30;54.40;;;43.40;;
63379;SDS011;53160;55.014;73.156;2022-10-26T13:51:59;40.60;;;33.00;;
63379;SDS011;53160;55.014;73.156;2022-10-26T13:54:37;51.00;;;42.20;;
63379;SDS011;53160;55.014;73.156;2022-10-26T13:59:59;60.60;;;47.40;;
63379;SDS011;53160;55.014;73.156;2022-10-26T14:02:39;57.00;;;44.20;;
63379;SDS011;53160;55.014;73.156;2022-10-26T14:05:09;51.20;;;43.00;;
63379;SDS011;53160;55.014;73.156;2022-10-26T14:13:07;38.20;;;35.20;;
63379;SDS011;53160;55.014;73.156;2022-10-26T14:15:34;55.20;;;45.00;;
63379;SDS011;53160;55.014;73.156;2022-10-26T14:18:05;56.40;;;44.60;;
63379;SDS011;53160;55.014;73.156;2022-10-26T14:20:32;50.40;;;42.00;;
63379;SDS011;53160;55.014;73.156;2022-10-26T14:22:58;44.00;;;37.00;;
63379;SDS011;53160;55.014;73.156;2022-10-26T14:25:25;57.00;;;44.00;;
63379;SDS011;53160;55.014;73.156;2022-10-26T14:27:56;51.60;;;43.20;;
63379;SDS011;53160;55.014;73.156;2022-10-26T14:30:32;48.60;;;40.20;;
63379;SDS011;53160;55.014;73.156;2022-10-26T14:32:59;49.20;;;41.80;;
63379;SDS011;53160;55.014;73.156;2022-10-26T14:35:28;39.80;;;37.00;;
63379;SDS011;53160;55.014;73.156;2022-10-26T14:37:59;37.00;;;33.80;;
63379;SDS011;53160;55.014;73.156;2022-10-26T14:40:27;39.80;;;38.00;;
63379;SDS011;53160;55.014;73.156;2022-10-26T14:43:04;43.00;;;36.20;;
63379;SDS011;53160;55.014;73.156;2022-10-26T14:45:34;43.80;;;38.80;;
63379;SDS011;53160;55.014;73.156;2022-10-26T14:48:13;46.20;;;40.80;;
63379;SDS011;53160;55.014;73.156;2022-10-26T14:50:43;52.20;;;38.40;;
63379;SDS011;53160;55.014;73.156;2022-10-26T14:53:15;44.00;;;37.20;;
63379;SDS011;53160;55.014;73.156;2022-10-26T14:55:59;38.00;;;36.20;;
63379;SDS011;53160;55.014;73.156;2022-10-26T14:58:29;50.00;;;40.60;;
63379;SDS011;53160;55.014;73.156;2022-10-26T15:01:22;47.20;;;40.40;;
63379;SDS011;53160;55.014;73.156;2022-10-26T15:03:51;53.20;;;43.00;;
63379;SDS011;53160;55.014;73.156;2022-10-26T15:09:04;54.00;;;44.20;;
63379;SDS011;53160;55.014;73.156;2022-10-26T15:11:32;50.20;;;40.80;;
63379;SDS011;53160;55.014;73.156;2022-10-26T15:14:03;65.20;;;51.40;;
63379;SDS011;53160;55.014;73.156;2022-10-26T15:16:49;60.00;;;51.00;;
63379;SDS011;53160;55.014;73.156;2022-10-26T15:19:15;61.00;;;49.00;;
63379;SDS011;53160;55.014;73.156;2022-10-26T15:21:47;55.20;;;46.00;;
63379;SDS011;53160;55.014;73.156;2022-10-26T15:24:29;54.80;;;43.00;;
63379;SDS011;53160;55.014;73.156;2022-10-26T15:26:56;48.00;;;38.60;;
63379;SDS011;53160;55.014;73.156;2022-10-26T15:37:45;40.80;;;36.20;;
63379;SDS011;53160;55.014;73.156;2022-10-26T15:40:11;38.00;;;35.80;;
63379;SDS011;53160;55.014;73.156;2022-10-26T15:42:42;41.40;;;35.00;;
63379;SDS011;53160;55.014;73.156;2022-10-26T15:45:22;37.60;;;35.60;;
63379;SDS011;53160;55.014;73.156;2022-10-26T15:47:49;42.60;;;37.00;;
63379;SDS011;53160;55.014;73.156;2022-10-26T15:50:18;41.40;;;36.20;;
63379;SDS011;53160;55.014;73.156;2022-10-26T15:52:54;34.20;;;32.40;;
63379;SDS011;53160;55.014;73.156;2022-10-26T15:55:21;39.00;;;36.00;;
63379;SDS011;53160;55.014;73.156;2022-10-26T15:57:57;42.20;;;39.00;;
63379;SDS011;53160;55.014;73.156;2022-10-26T16:00:23;51.40;;;43.20;;
63379;SDS011;53160;55.014;73.156;2022-10-26T16:02:49;51.40;;;42.00;;
63379;SDS011;53160;55.014;73.156;2022-10-26T16:05:25;51.20;;;41.00;;
63379;SDS011;53160;55.014;73.156;2022-10-26T16:08:02;47.60;;;38.80;;
63379;SDS011;53160;55.014;73.156;2022-10-26T16:10:28;57.00;;;44.80;;
63379;SDS011;53160;55.014;73.156;2022-10-26T16:12:54;55.40;;;45.60;;
63379;SDS011;53160;55.014;73.156;2022-10-26T16:15:30;56.60;;;46.20;;
63379;SDS011;53160;55.014;73.156;2022-10-26T16:17:57;52.60;;;42.60;;
63379;SDS011;53160;55.014;73.156;2022-10-26T16:20:23;56.40;;;45.40;;
63379;SDS011;53160;55.014;73.156;2022-10-26T16:22:52;65.40;;;49.60;;
63379;SDS011;53160;55.014;73.156;2022-10-26T16:25:22;60.40;;;49.00;;
63379;SDS011;53160;55.014;73.156;2022-10-26T16:27:48;60.40;;;50.60;;
63379;SDS011;53160;55.014;73.156;2022-10-26T16:30:24;64.00;;;51.20;;
63379;SDS011;53160;55.014;73.156;2022-10-26T16:32:51;46.00;;;42.00;;
63379;SDS011;53160;55.014;73.156;2022-10-26T16:35:17;64.20;;;52.80;;
63379;SDS011;53160;55.014;73.156;2022-10-26T16:37:48;61.60;;;49.60;;
63379;SDS011;53160;55.014;73.156;2022-10-26T16:40:15;62.20;;;48.80;;
63379;SDS011;53160;55.014;73.156;2022-10-26T16:42:46;51.40;;;44.00;;